createdAt,value
2022-09-28T03:54:39.179Z,11.27
2022-09-28T03:57:41.625Z,11.12
2022-09-28T04:00:43.727Z,11.02
2022-09-28T04:03:47.811Z,11.00
2022-09-28T04:06:49.967Z,11.04
2022-09-28T04:09:52.435Z,11.05
2022-09-28T04:12:56.028Z,10.98
2022-09-28T04:16:00.568Z,10.86
2022-09-28T04:19:04.180Z,10.85
2022-09-28T04:22:06.522Z,10.76
2022-09-28T04:25:09.851Z,10.53
2022-09-28T04:28:31.770Z,10.65
2022-09-28T04:31:54.318Z,10.58
2022-09-28T04:34:57.895Z,10.45
2022-09-28T04:38:00.134Z,10.35
2022-09-28T04:41:02.909Z,10.20
2022-09-28T04:44:05.229Z,10.15
2022-09-28T04:47:07.553Z,10.16
2022-09-28T04:50:10.337Z,10.10
2022-09-28T04:53:35.106Z,10.24
2022-09-28T04:56:37.242Z,10.27
2022-09-28T04:59:39.657Z,10.25
2022-09-28T05:02:41.729Z,10.26
2022-09-28T05:05:45.549Z,10.04
2022-09-28T05:08:50.156Z,10.00
2022-09-28T05:11:53.019Z,10.06
2022-09-28T05:14:56.541Z,9.93
2022-09-28T05:17:58.867Z,9.95
2022-09-28T05:21:01.693Z,9.86
2022-09-28T05:24:07.351Z,9.66
2022-09-28T05:27:09.637Z,9.62
2022-09-28T05:30:12.226Z,9.69
2022-09-28T05:33:17.602Z,9.66
2022-09-28T05:36:20.186Z,9.92
2022-09-28T05:39:22.327Z,9.96
2022-09-28T05:42:24.608Z,9.90
2022-09-28T05:45:26.795Z,10.03
2022-09-28T05:48:29.665Z,10.10
2022-09-28T05:51:31.802Z,10.21
2022-09-28T05:54:34.142Z,10.33
2022-09-28T05:57:36.412Z,10.47
2022-09-28T06:00:39.336Z,10.50
2022-09-28T06:03:42.079Z,10.49
2022-09-28T06:06:44.165Z,10.42
2022-09-28T06:09:46.861Z,10.46
2022-09-28T06:12:53.269Z,10.55
2022-09-28T06:15:55.718Z,10.71
2022-09-28T06:18:57.901Z,10.79
2022-09-28T06:22:00.899Z,10.80
2022-09-28T06:25:04.349Z,10.87
2022-09-28T06:28:10.714Z,10.86
2022-09-28T06:31:13.103Z,10.98
2022-09-28T06:34:16.158Z,11.16
2022-09-28T06:37:19.343Z,11.19
2022-09-28T06:40:23.130Z,11.31
2022-09-28T06:43:25.658Z,11.36
2022-09-28T06:46:39.157Z,11.55
2022-09-28T06:49:42.217Z,11.70
2022-09-28T06:52:45.281Z,11.92
2022-09-28T06:55:50.337Z,12.06
2022-09-28T06:58:52.782Z,12.16
2022-09-28T07:01:54.914Z,12.13
2022-09-28T07:04:57.383Z,12.25
2022-09-28T07:08:01.924Z,12.29
2022-09-28T07:11:07.939Z,12.39
2022-09-28T07:14:22.482Z,12.55
2022-09-28T07:17:33.006Z,12.46
2022-09-28T07:20:49.233Z,12.55
2022-09-28T07:23:54.678Z,12.63
2022-09-28T07:26:58.558Z,12.68
2022-09-28T07:30:01.289Z,12.81
2022-09-28T07:33:07.040Z,12.99
2022-09-28T07:36:10.666Z,13.14
2022-09-28T07:39:12.845Z,13.30
2022-09-28T07:42:15.506Z,13.38
2022-09-28T07:45:25.920Z,13.56
2022-09-28T07:48:28.477Z,13.59
2022-09-28T07:51:32.291Z,13.59
2022-09-28T07:54:36.227Z,13.75
2022-09-28T07:57:49.795Z,13.78
2022-09-28T08:00:56.268Z,13.95
2022-09-28T08:03:59.876Z,14.05
2022-09-28T08:07:03.030Z,14.29
2022-09-28T08:10:07.211Z,14.41
2022-09-28T08:13:10.543Z,14.47
2022-09-28T08:16:13.734Z,14.57
2022-09-28T08:19:15.995Z,14.70
2022-09-28T08:22:19.865Z,14.89
2022-09-28T08:25:25.332Z,15.23
2022-09-28T08:28:27.979Z,15.21
2022-09-28T08:31:31.097Z,15.16
2022-09-28T08:34:41.210Z,15.10
2022-09-28T08:37:54.626Z,15.20
2022-09-28T08:41:23.412Z,15.29
2022-09-28T08:44:31.922Z,15.36
2022-09-28T08:48:20.985Z,15.53
2022-09-28T08:51:35.805Z,15.66
2022-09-28T08:55:02.491Z,15.58
2022-09-28T08:58:17.290Z,15.58
2022-09-28T09:01:21.259Z,15.53
2022-09-28T09:04:23.377Z,15.48
2022-09-28T09:07:49.543Z,15.53
2022-09-28T09:11:04.240Z,15.56
2022-09-28T09:14:32.834Z,15.68
2022-09-28T09:18:05.103Z,15.73
2022-09-28T09:21:15.487Z,15.66
2022-09-28T09:24:35.668Z,15.71
2022-09-28T09:27:57.592Z,15.77
2022-09-28T09:31:26.574Z,15.85
2022-09-28T09:34:43.274Z,15.92
2022-09-28T09:38:28.500Z,16.03
2022-09-28T09:42:07.770Z,16.18
2022-09-28T09:45:46.002Z,16.41
2022-09-28T09:49:03.480Z,16.63
2022-09-28T09:52:21.923Z,16.77
2022-09-28T09:55:38.596Z,17.01
2022-09-28T09:58:50.906Z,17.05
2022-09-28T10:01:55.836Z,16.73
2022-09-28T10:05:10.590Z,16.64
2022-09-28T10:08:17.839Z,16.45
2022-09-28T10:11:27.070Z,16.34
2022-09-28T10:14:30.979Z,16.21
2022-09-28T10:17:37.118Z,16.09
2022-09-28T10:20:50.670Z,16.11
2022-09-28T10:23:59.248Z,16.20
2022-09-28T10:27:18.379Z,16.26
2022-09-28T10:30:23.867Z,16.37
2022-09-28T10:33:33.770Z,16.45
2022-09-28T10:36:51.890Z,16.45
2022-09-28T10:39:55.889Z,16.43
2022-09-28T10:43:36.748Z,16.37
2022-09-28T10:46:41.336Z,16.41
2022-09-28T10:49:48.424Z,16.42
2022-09-28T10:52:50.712Z,16.17
2022-09-28T10:56:04.636Z,16.32
2022-09-28T10:59:33.419Z,16.29
2022-09-28T11:02:40.163Z,16.30
2022-09-28T11:05:54.079Z,16.25
2022-09-28T11:09:03.922Z,16.34
2022-09-28T11:12:14.969Z,16.36
2022-09-28T11:15:21.201Z,16.47
2022-09-28T11:18:32.265Z,16.69
2022-09-28T11:21:43.129Z,17.04
2022-09-28T11:24:45.802Z,17.05
2022-09-28T11:27:51.521Z,16.96
2022-09-28T11:30:54.512Z,16.87
2022-09-28T11:34:31.069Z,17.02
2022-09-28T11:37:55.890Z,17.20
2022-09-28T11:41:21.135Z,17.51
2022-09-28T11:44:37.361Z,17.31
2022-09-28T11:47:55.813Z,17.43
2022-09-28T11:51:12.187Z,17.59
2022-09-28T11:54:47.358Z,17.66
2022-09-28T11:58:12.939Z,17.71
2022-09-28T12:01:35.632Z,17.55
2022-09-28T12:04:44.275Z,17.48
2022-09-28T12:07:59.061Z,17.39
2022-09-28T12:11:15.651Z,17.52
2022-09-28T12:14:29.887Z,17.55
2022-09-28T12:17:54.444Z,17.53
2022-09-28T12:21:38.506Z,17.49
2022-09-28T12:24:45.505Z,17.47
2022-09-28T12:27:53.527Z,17.35
2022-09-28T12:31:02.234Z,17.51
2022-09-28T12:34:04.999Z,17.51
2022-09-28T12:37:40.387Z,17.45
2022-09-28T12:41:02.579Z,17.28
2022-09-28T12:44:47.146Z,17.37
2022-09-28T12:47:59.190Z,17.48
2022-09-28T12:51:18.418Z,17.39
2022-09-28T12:54:26.382Z,17.21
2022-09-28T12:57:58.170Z,17.20
2022-09-28T13:01:29.974Z,17.15
2022-09-28T13:04:55.658Z,16.83
2022-09-28T13:08:19.501Z,16.81
2022-09-28T13:11:46.860Z,17.01
2022-09-28T13:15:03.780Z,17.25
2022-09-28T13:18:44.475Z,17.48
2022-09-28T13:22:14.709Z,17.77
2022-09-28T13:25:20.688Z,17.72
2022-09-28T13:28:27.309Z,17.73
2022-09-28T13:31:34.935Z,17.63
2022-09-28T13:34:39.587Z,17.57
2022-09-28T13:37:41.908Z,17.62
2022-09-28T13:41:06.637Z,17.68
2022-09-28T13:44:36.870Z,17.63
2022-09-28T13:47:51.620Z,17.68
2022-09-28T13:51:12.340Z,17.86
2022-09-28T13:54:30.802Z,17.88
2022-09-28T13:57:36.073Z,17.91
2022-09-28T14:00:47.014Z,17.88
2022-09-28T14:04:18.928Z,17.79
2022-09-28T14:07:45.598Z,17.72
2022-09-28T14:10:51.709Z,17.69
2022-09-28T14:14:11.708Z,17.68
2022-09-28T14:17:27.270Z,17.75
2022-09-28T14:20:31.326Z,17.68
2022-09-28T14:24:02.230Z,17.66
2022-09-28T14:27:23.033Z,17.52
2022-09-28T14:30:35.311Z,17.46
2022-09-28T14:33:39.258Z,17.42
2022-09-28T14:37:06.577Z,17.41
2022-09-28T14:40:35.536Z,17.39
2022-09-28T14:43:43.591Z,17.40
2022-09-28T14:46:47.342Z,17.28
2022-09-28T14:50:00.582Z,17.22
2022-09-28T14:53:23.842Z,17.05
2022-09-28T14:56:32.615Z,16.93
2022-09-28T14:59:42.807Z,16.90
2022-09-28T15:02:51.793Z,16.92
2022-09-28T15:05:54.304Z,16.86
2022-09-28T15:08:56.697Z,16.82
2022-09-28T15:11:59.949Z,16.65
2022-09-28T15:15:05.474Z,16.69
2022-09-28T15:18:43.751Z,16.62
2022-09-28T15:21:48.537Z,16.62
2022-09-28T15:25:01.370Z,16.57
2022-09-28T15:28:19.284Z,16.46
2022-09-28T15:31:24.267Z,16.38
